createdAt,value
2017-09-04T00:00:56.766Z,95.50
2017-09-04T00:03:24.231Z,95.40
2017-09-04T00:05:51.703Z,95.20
2017-09-04T00:08:19.180Z,95.20
2017-09-04T00:10:46.626Z,95.40
2017-09-04T00:13:14.100Z,95.30
2017-09-04T00:15:41.566Z,95.40
2017-09-04T00:18:09.051Z,95.40
2017-09-04T00:20:36.520Z,95.50
2017-09-04T00:23:03.967Z,95.60
2017-09-04T00:25:31.447Z,95.50
2017-09-04T00:27:58.899Z,95.60
2017-09-04T00:30:26.360Z,95.70
2017-09-04T00:32:53.826Z,95.80
2017-09-04T00:35:21.286Z,96.10
2017-09-04T00:37:48.763Z,96.10
2017-09-04T00:40:17.003Z,96.90
2017-09-04T00:42:44.479Z,96.60
2017-09-04T00:45:11.931Z,96.50
2017-09-04T00:47:39.410Z,96.40
2017-09-04T00:50:06.878Z,96.50
2017-09-04T00:52:34.359Z,96.80
2017-09-04T00:55:01.858Z,97.00
2017-09-04T00:57:29.314Z,97.10
2017-09-04T00:59:56.790Z,97.30
2017-09-04T01:02:25.024Z,97.70
2017-09-04T01:04:52.491Z,97.70
2017-09-04T01:07:19.963Z,97.70
2017-09-04T01:09:47.421Z,97.80
2017-09-04T01:12:15.238Z,97.90
2017-09-04T01:14:42.691Z,97.90
2017-09-04T01:17:10.166Z,98.00
2017-09-04T01:19:37.618Z,98.20
2017-09-04T01:22:05.083Z,98.20
2017-09-04T01:24:32.561Z,98.30
2017-09-04T01:27:00.024Z,98.40
2017-09-04T01:29:27.482Z,98.50
2017-09-04T01:31:54.954Z,98.60
2017-09-04T01:34:23.178Z,98.80
2017-09-04T01:36:50.658Z,98.80
2017-09-04T01:39:18.142Z,99.10
2017-09-04T01:41:45.612Z,99.10
2017-09-04T01:44:13.066Z,98.90
2017-09-04T01:46:40.555Z,99.20
2017-09-04T01:49:08.030Z,99.20
2017-09-04T01:51:35.499Z,99.30
2017-09-04T01:54:02.963Z,99.80
2017-09-04T01:56:30.439Z,99.90
2017-09-04T01:58:57.927Z,99.90
2017-09-04T02:01:25.489Z,99.90
2017-09-04T02:03:53.522Z,99.90
2017-09-04T02:06:21.003Z,99.90
2017-09-04T02:08:48.472Z,99.90
2017-09-04T02:11:15.943Z,99.90
2017-09-04T02:13:43.394Z,99.90
2017-09-04T02:16:10.906Z,99.90
2017-09-04T02:18:38.371Z,99.90
2017-09-04T02:21:05.851Z,99.90
2017-09-04T02:23:33.313Z,99.90
2017-09-04T02:26:00.795Z,99.90
2017-09-04T02:28:28.300Z,99.90
2017-09-04T02:30:56.538Z,99.90
2017-09-04T02:33:24.015Z,99.90
2017-09-04T02:35:51.488Z,99.90
2017-09-04T02:38:18.963Z,99.90
2017-09-04T02:40:46.424Z,99.90
2017-09-04T02:43:13.887Z,99.90
2017-09-04T02:45:41.371Z,99.90
2017-09-04T02:48:08.847Z,99.90
2017-09-04T02:50:36.306Z,99.90
2017-09-04T02:53:03.810Z,99.90
2017-09-04T02:55:31.280Z,99.90
2017-09-04T02:57:58.738Z,99.90
2017-09-04T03:00:26.215Z,99.90
2017-09-04T03:02:53.674Z,99.90
2017-09-04T03:05:21.139Z,99.90
2017-09-04T03:07:48.614Z,99.90
2017-09-04T03:10:16.106Z,99.90
2017-09-04T03:12:43.575Z,99.90
2017-09-04T03:15:11.039Z,99.90
2017-09-04T03:17:38.516Z,99.90
2017-09-04T03:20:05.994Z,99.90
2017-09-04T03:22:33.455Z,99.90
2017-09-04T03:25:00.930Z,99.90
2017-09-04T03:27:28.395Z,99.90
2017-09-04T03:29:55.871Z,99.90
2017-09-04T03:32:23.358Z,99.90
2017-09-04T03:34:50.822Z,99.90
2017-09-04T03:37:18.287Z,99.90
2017-09-04T03:39:45.763Z,99.90
2017-09-04T03:42:13.244Z,99.90
2017-09-04T03:44:40.724Z,99.90
2017-09-04T03:47:08.182Z,99.90
2017-09-04T03:49:35.663Z,99.90
2017-09-04T03:52:03.131Z,99.90
2017-09-04T03:54:30.582Z,99.90
2017-09-04T03:56:58.063Z,99.90
2017-09-04T03:59:25.544Z,99.90
2017-09-04T04:01:53.015Z,99.90
2017-09-04T04:04:20.475Z,99.90
2017-09-04T04:06:47.956Z,99.90
2017-09-04T04:09:15.423Z,99.90
2017-09-04T04:11:43.667Z,99.90
2017-09-04T04:14:11.134Z,99.90
2017-09-04T04:16:38.612Z,99.90
2017-09-04T04:19:06.108Z,99.90
2017-09-04T04:21:33.576Z,99.90
2017-09-04T04:24:01.046Z,99.90
2017-09-04T04:26:28.507Z,99.90
2017-09-04T04:28:55.983Z,99.90
2017-09-04T04:31:23.468Z,99.90
2017-09-04T04:33:50.931Z,99.90
2017-09-04T04:36:18.414Z,99.90
2017-09-04T04:38:45.883Z,99.90
2017-09-04T04:41:13.346Z,99.90
2017-09-04T04:43:48.267Z,99.90
2017-09-04T04:46:15.715Z,99.90
2017-09-04T04:48:43.187Z,99.90
2017-09-04T04:51:10.642Z,99.90
2017-09-04T04:53:38.137Z,99.90
2017-09-04T04:56:06.452Z,99.90
2017-09-04T04:58:33.923Z,99.90
2017-09-04T05:01:01.392Z,99.90
2017-09-04T05:03:28.853Z,99.90
2017-09-04T05:05:56.327Z,99.90
2017-09-04T05:08:23.787Z,99.90
2017-09-04T05:10:51.263Z,99.90
2017-09-04T05:13:18.726Z,99.90
2017-09-04T05:15:46.235Z,99.90
2017-09-04T05:18:13.683Z,99.90
2017-09-04T05:20:41.143Z,99.90
2017-09-04T05:23:08.607Z,99.90
2017-09-04T05:25:36.091Z,99.90
2017-09-04T05:28:03.542Z,99.90
2017-09-04T05:30:31.026Z,99.90
2017-09-04T05:32:58.492Z,99.90
2017-09-04T05:35:25.959Z,99.90
2017-09-04T05:37:53.430Z,99.90
2017-09-04T05:40:20.906Z,99.90
2017-09-04T05:42:48.399Z,99.90
2017-09-04T05:45:15.880Z,99.90
2017-09-04T05:47:43.440Z,99.90
2017-09-04T05:50:10.907Z,99.90
2017-09-04T05:52:38.376Z,99.90
2017-09-04T05:55:05.840Z,99.90
2017-09-04T05:57:33.314Z,99.90
2017-09-04T06:00:00.770Z,99.90
2017-09-04T06:02:28.231Z,99.90
2017-09-04T06:04:55.712Z,99.90
2017-09-04T06:07:23.191Z,99.90
2017-09-04T06:09:50.679Z,99.90
2017-09-04T06:12:18.156Z,99.90
2017-09-04T06:14:45.620Z,99.90
2017-09-04T06:17:13.079Z,99.90
2017-09-04T06:19:40.555Z,99.90
2017-09-04T06:22:08.022Z,99.90
2017-09-04T06:24:35.502Z,99.90
2017-09-04T06:27:02.986Z,99.90
2017-09-04T06:29:30.454Z,99.90
2017-09-04T06:31:57.935Z,99.90
2017-09-04T06:34:26.161Z,99.90
2017-09-04T06:36:53.635Z,99.90
2017-09-04T06:39:21.116Z,99.30
2017-09-04T06:41:48.579Z,99.10
2017-09-04T06:44:16.057Z,98.40
2017-09-04T06:46:43.520Z,99.20
2017-09-04T06:49:10.971Z,98.00
2017-09-04T06:51:38.451Z,97.90
2017-09-04T06:54:05.922Z,97.60
2017-09-04T06:56:33.398Z,97.30
2017-09-04T06:59:00.870Z,96.40
2017-09-04T07:01:28.334Z,96.70
2017-09-04T07:03:55.808Z,96.90
2017-09-04T07:06:23.320Z,96.50
2017-09-04T07:08:50.782Z,96.60
2017-09-04T07:11:19.014Z,95.60
2017-09-04T07:13:46.491Z,95.50
2017-09-04T07:16:13.956Z,95.70
2017-09-04T07:18:41.422Z,95.10
2017-09-04T07:21:08.895Z,94.10
2017-09-04T07:23:36.381Z,94.30
2017-09-04T07:26:03.847Z,94.20
2017-09-04T07:28:31.319Z,94.30
2017-09-04T07:30:58.782Z,94.10
2017-09-04T07:33:26.267Z,94.10
2017-09-04T07:35:53.743Z,94.00
2017-09-04T07:38:21.223Z,94.10
2017-09-04T07:40:48.710Z,94.10
2017-09-04T07:43:16.178Z,94.20
2017-09-04T07:45:43.655Z,93.50
2017-09-04T07:48:11.135Z,93.80
2017-09-04T07:50:38.626Z,92.40
2017-09-04T07:53:06.086Z,91.70
2017-09-04T07:55:33.547Z,91.80
2017-09-04T07:58:01.046Z,91.00
2017-09-04T08:00:28.507Z,91.10
2017-09-04T08:02:56.731Z,91.30
2017-09-04T08:05:24.238Z,91.30
2017-09-04T08:07:51.679Z,90.50
2017-09-04T08:10:19.176Z,90.80
2017-09-04T08:12:46.635Z,91.10
2017-09-04T08:15:14.102Z,89.50
2017-09-04T08:17:41.574Z,89.70
2017-09-04T08:20:09.040Z,89.20
2017-09-04T08:22:36.516Z,87.80
2017-09-04T08:25:03.982Z,86.30
2017-09-04T08:27:31.456Z,85.90
2017-09-04T08:29:58.926Z,85.70
2017-09-04T08:32:26.417Z,84.80
2017-09-04T08:34:53.886Z,86.60
2017-09-04T08:37:21.359Z,85.60
2017-09-04T08:39:48.854Z,84.50
2017-09-04T08:42:16.311Z,83.00
2017-09-04T08:44:43.780Z,81.80
2017-09-04T08:47:11.246Z,82.20
2017-09-04T08:49:38.736Z,81.70
2017-09-04T08:52:06.209Z,80.10
2017-09-04T08:54:33.694Z,78.60
2017-09-04T08:57:01.159Z,78.20
2017-09-04T08:59:28.708Z,78.60
2017-09-04T09:01:56.181Z,76.00
2017-09-04T09:04:23.664Z,74.60
2017-09-04T09:06:51.138Z,76.40
2017-09-04T09:09:18.651Z,73.90
2017-09-04T09:11:46.110Z,74.60
2017-09-04T09:14:13.574Z,74.00
2017-09-04T09:16:41.043Z,72.70
2017-09-04T09:19:08.511Z,72.20
2017-09-04T09:21:35.987Z,70.30
2017-09-04T09:24:04.223Z,68.30
2017-09-04T09:26:31.703Z,68.20
2017-09-04T09:28:59.180Z,70.90
2017-09-04T09:31:26.638Z,69.40
2017-09-04T09:33:54.111Z,72.50
2017-09-04T09:36:21.575Z,71.20
2017-09-04T09:38:49.067Z,68.40
2017-09-04T09:41:16.523Z,68.60
2017-09-04T09:43:43.979Z,66.50
2017-09-04T09:46:11.455Z,66.20
2017-09-04T09:48:38.912Z,66.70
2017-09-04T09:51:06.400Z,68.10
2017-09-04T09:53:33.876Z,68.20
2017-09-04T09:56:01.330Z,65.60
2017-09-04T09:58:28.806Z,67.10
2017-09-04T10:00:56.263Z,67.50
2017-09-04T10:03:23.739Z,61.50
2017-09-04T10:05:51.207Z,60.70
2017-09-04T10:08:18.678Z,56.80
2017-09-04T10:10:46.171Z,54.50
2017-09-04T10:13:13.650Z,53.60
2017-09-04T10:15:41.111Z,53.20
2017-09-04T10:18:08.575Z,51.40
2017-09-04T10:20:36.032Z,50.70
2017-09-04T10:23:03.486Z,48.60
2017-09-04T10:25:30.959Z,49.20
2017-09-04T10:27:58.407Z,47.80
2017-09-04T10:30:25.899Z,47.20
2017-09-04T10:32:53.354Z,46.60
2017-09-04T10:35:20.811Z,45.40
2017-09-04T10:37:48.294Z,44.60
2017-09-04T10:40:15.748Z,46.10
2017-09-04T10:42:43.203Z,45.70
2017-09-04T10:45:10.682Z,45.70
2017-09-04T10:47:38.139Z,47.20
2017-09-04T10:50:05.615Z,51.00
2017-09-04T10:52:33.071Z,52.70
2017-09-04T10:55:00.542Z,52.90
2017-09-04T10:57:28.007Z,54.60
2017-09-04T10:59:55.487Z,55.60
2017-09-04T11:02:22.961Z,55.90
2017-09-04T11:04:50.416Z,52.70
2017-09-04T11:07:17.874Z,51.20
2017-09-04T11:09:45.345Z,47.70
2017-09-04T11:12:12.811Z,45.20
2017-09-04T11:14:40.279Z,49.10
2017-09-04T11:17:07.739Z,49.20
2017-09-04T11:19:35.223Z,47.00
2017-09-04T11:22:02.683Z,44.90
2017-09-04T11:24:30.133Z,46.10
2017-09-04T11:26:57.607Z,48.30
2017-09-04T11:29:25.087Z,48.60
2017-09-04T11:31:52.564Z,46.20
2017-09-04T11:34:20.019Z,46.10
2017-09-04T11:36:47.499Z,48.50
2017-09-04T11:39:15.000Z,47.40
2017-09-04T11:41:42.448Z,47.30
2017-09-04T11:44:09.915Z,46.00
2017-09-04T11:46:37.372Z,46.20
2017-09-04T11:49:04.859Z,45.60
2017-09-04T11:51:32.327Z,46.00
2017-09-04T11:53:59.819Z,46.80
2017-09-04T11:56:27.279Z,48.50
2017-09-04T11:58:54.753Z,47.90
2017-09-04T12:01:22.219Z,48.50
2017-09-04T12:03:49.678Z,49.50
2017-09-04T12:06:17.154Z,50.20
2017-09-04T12:08:45.466Z,50.20
2017-09-04T12:11:12.951Z,51.10
2017-09-04T12:13:40.415Z,51.00
2017-09-04T12:16:07.871Z,52.10
2017-09-04T12:18:35.335Z,51.20
2017-09-04T12:21:02.791Z,48.30
2017-09-04T12:23:30.270Z,46.90
2017-09-04T12:25:57.736Z,48.30
2017-09-04T12:28:25.189Z,47.00
2017-09-04T12:30:52.655Z,47.60
2017-09-04T12:33:20.127Z,48.20
2017-09-04T12:35:47.632Z,47.40
2017-09-04T12:38:15.099Z,46.70
2017-09-04T12:40:42.633Z,47.30
2017-09-04T12:43:10.099Z,49.00
2017-09-04T12:45:37.574Z,50.20
2017-09-04T12:48:05.020Z,50.40
2017-09-04T12:50:32.496Z,50.20
2017-09-04T12:52:59.951Z,51.70
2017-09-04T12:55:27.418Z,52.30
2017-09-04T12:57:54.880Z,54.20
2017-09-04T13:00:22.352Z,53.10
2017-09-04T13:02:49.841Z,52.70
2017-09-04T13:05:17.401Z,52.60
2017-09-04T13:07:44.875Z,53.60
2017-09-04T13:13:29.987Z,54.00
2017-09-04T13:16:03.244Z,54.00
2017-09-04T13:21:42.183Z,56.20
2017-09-04T13:27:13.210Z,56.80
2017-09-04T13:29:47.339Z,56.20
2017-09-04T13:32:20.490Z,54.80
2017-09-04T13:34:53.711Z,55.60
2017-09-04T13:37:26.962Z,53.90
2017-09-04T13:40:00.246Z,54.70
2017-09-04T13:42:33.569Z,55.80
2017-09-04T13:45:06.775Z,55.20
2017-09-04T13:47:40.816Z,55.70
2017-09-04T13:50:13.902Z,56.50
2017-09-04T13:52:47.862Z,56.90
2017-09-04T13:55:21.002Z,55.20
2017-09-04T13:57:54.231Z,56.80
2017-09-04T14:03:33.167Z,55.00
2017-09-04T14:06:06.391Z,54.50
2017-09-04T14:11:37.421Z,54.80
2017-09-04T14:14:10.667Z,54.20
2017-09-04T14:16:43.787Z,54.30
2017-09-04T14:19:11.237Z,52.50
2017-09-04T14:21:38.702Z,54.30
2017-09-04T14:24:06.187Z,53.30
2017-09-04T14:26:33.639Z,55.00
2017-09-04T14:29:01.092Z,54.60
2017-09-04T14:31:28.563Z,56.00
2017-09-04T14:33:56.038Z,55.20
2017-09-04T14:36:24.283Z,55.10
2017-09-04T14:38:51.743Z,55.00
2017-09-04T14:41:34.107Z,55.80
2017-09-04T14:44:07.200Z,55.30
2017-09-04T14:46:41.366Z,54.90
2017-09-04T14:49:09.603Z,54.60
2017-09-04T14:51:37.054Z,54.50
2017-09-04T14:54:04.532Z,55.10
2017-09-04T14:56:32.003Z,56.20
2017-09-04T14:58:59.455Z,57.70
2017-09-04T15:01:26.963Z,57.10
2017-09-04T15:03:54.420Z,57.30
2017-09-04T15:06:21.876Z,57.50
2017-09-04T15:08:49.341Z,58.60
2017-09-04T15:11:17.163Z,59.30
2017-09-04T15:13:44.624Z,60.20
2017-09-04T15:16:12.105Z,61.10
2017-09-04T15:18:39.574Z,61.50
2017-09-04T15:21:07.024Z,61.50
2017-09-04T15:23:34.523Z,62.40
2017-09-04T15:26:01.968Z,62.00
2017-09-04T15:28:29.451Z,62.20
2017-09-04T15:30:56.931Z,62.70
2017-09-04T15:33:24.402Z,62.20
2017-09-04T15:35:51.856Z,62.60
2017-09-04T15:38:19.336Z,62.80
2017-09-04T15:40:46.795Z,63.90
2017-09-04T15:43:14.269Z,63.30
2017-09-04T15:45:41.727Z,62.60
2017-09-04T15:48:09.204Z,63.90
2017-09-04T15:50:36.659Z,63.50
2017-09-04T15:53:04.150Z,63.90
2017-09-04T15:55:31.608Z,63.60
2017-09-04T15:57:59.102Z,64.20
2017-09-04T16:00:26.557Z,64.40
2017-09-04T16:02:54.047Z,64.80
2017-09-04T16:05:24.265Z,65.20
2017-09-04T16:08:03.386Z,65.40
2017-09-04T16:10:30.850Z,65.40
2017-09-04T16:13:02.807Z,66.20
2017-09-04T16:15:41.171Z,65.40
2017-09-04T16:18:15.392Z,66.00
2017-09-04T16:20:47.716Z,65.70
2017-09-04T16:23:28.073Z,66.30
2017-09-04T16:25:59.823Z,66.40
2017-09-04T16:28:29.271Z,66.30
2017-09-04T16:31:09.680Z,65.50
2017-09-04T16:33:38.610Z,65.50
2017-09-04T16:36:08.732Z,66.40
2017-09-04T16:38:41.876Z,66.40
2017-09-04T16:41:19.312Z,66.50
2017-09-04T16:43:57.519Z,67.10
2017-09-04T16:46:37.883Z,67.50
2017-09-04T16:49:05.360Z,67.50
2017-09-04T16:51:42.743Z,67.70
2017-09-04T16:57:11.559Z,67.90
2017-09-04T16:59:39.052Z,68.80
2017-09-04T17:02:06.503Z,68.80
2017-09-04T17:04:33.987Z,69.60
2017-09-04T17:07:01.458Z,69.80
2017-09-04T17:09:30.815Z,70.30
2017-09-04T17:12:08.203Z,71.50
2017-09-04T17:14:35.660Z,72.50
2017-09-04T17:20:04.650Z,73.90
2017-09-04T17:22:37.835Z,74.20
2017-09-04T17:25:05.310Z,75.20
2017-09-04T17:27:32.760Z,75.90
2017-09-04T17:30:00.232Z,76.40
2017-09-04T17:32:27.688Z,77.00
2017-09-04T17:34:55.163Z,77.80
2017-09-04T17:37:22.650Z,78.20
2017-09-04T17:39:50.110Z,78.90
2017-09-04T17:42:17.570Z,79.10
2017-09-04T17:44:45.061Z,79.70
2017-09-04T17:47:12.579Z,80.50
2017-09-04T17:49:40.057Z,81.00
2017-09-04T17:52:07.555Z,81.70
2017-09-04T17:54:35.027Z,81.90
2017-09-04T17:57:02.504Z,82.30
2017-09-04T17:59:29.974Z,82.80
2017-09-04T18:01:57.435Z,82.90
2017-09-04T18:04:24.913Z,83.30
2017-09-04T18:06:52.391Z,83.60
2017-09-04T18:09:20.639Z,84.80
2017-09-04T18:11:48.110Z,84.80
2017-09-04T18:14:15.582Z,85.50
2017-09-04T18:16:43.799Z,86.10
2017-09-04T18:19:11.263Z,86.00
2017-09-04T18:21:38.730Z,86.70
2017-09-04T18:24:06.256Z,87.00
2017-09-04T18:26:33.714Z,87.30
2017-09-04T18:29:01.164Z,87.90
2017-09-04T18:31:28.647Z,88.20
2017-09-04T18:33:56.098Z,88.80
2017-09-04T18:36:23.575Z,89.20
2017-09-04T18:38:51.040Z,89.70
2017-09-04T18:41:18.490Z,90.00
2017-09-04T18:43:45.966Z,90.20
2017-09-04T18:46:13.455Z,90.30
2017-09-04T18:48:40.930Z,90.50
2017-09-04T18:51:08.399Z,90.60
2017-09-04T18:53:35.859Z,90.70
2017-09-04T18:56:03.315Z,90.90
2017-09-04T18:58:30.791Z,91.00
2017-09-04T19:00:58.249Z,91.20
2017-09-04T19:03:25.733Z,91.20
2017-09-04T19:05:53.227Z,91.50
2017-09-04T19:08:20.679Z,91.60
2017-09-04T19:10:48.155Z,91.50
2017-09-04T19:13:15.619Z,91.60
2017-09-04T19:15:43.870Z,91.60
2017-09-04T19:18:11.318Z,91.90
2017-09-04T19:20:38.798Z,91.70
2017-09-04T19:23:06.278Z,91.80
2017-09-04T19:25:33.736Z,92.00
2017-09-04T19:28:01.245Z,92.10
2017-09-04T19:30:29.295Z,92.30
2017-09-04T19:32:56.779Z,92.50
2017-09-04T19:35:25.040Z,92.70
2017-09-04T19:37:52.560Z,92.70
2017-09-04T19:40:20.051Z,92.80
2017-09-04T19:42:47.544Z,93.30
2017-09-04T19:45:15.006Z,92.90
2017-09-04T19:47:42.711Z,93.00
2017-09-04T19:50:10.967Z,93.10
2017-09-04T19:52:38.446Z,93.10
2017-09-04T19:55:05.898Z,93.10
2017-09-04T19:57:33.355Z,93.10
2017-09-04T20:00:01.590Z,93.00
2017-09-04T20:02:29.043Z,93.00
2017-09-04T20:04:56.534Z,92.90
2017-09-04T20:07:24.000Z,93.00
2017-09-04T20:09:51.464Z,93.20
2017-09-04T20:12:18.926Z,93.00
2017-09-04T20:14:46.371Z,93.00
2017-09-04T20:17:13.843Z,92.90
2017-09-04T20:19:41.299Z,92.80
2017-09-04T20:22:08.773Z,92.80
2017-09-04T20:24:36.248Z,92.70
2017-09-04T20:27:03.724Z,92.80
2017-09-04T20:29:31.202Z,92.70
2017-09-04T20:31:58.659Z,92.80
2017-09-04T20:34:26.148Z,92.70
2017-09-04T20:36:53.610Z,92.90
2017-09-04T20:39:21.059Z,92.80
2017-09-04T20:41:48.539Z,92.80
2017-09-04T20:44:15.998Z,93.00
2017-09-04T20:46:43.479Z,93.30
2017-09-04T20:49:10.923Z,94.00
2017-09-04T20:51:38.407Z,94.60
2017-09-04T20:54:05.870Z,95.00
2017-09-04T20:56:33.326Z,95.30
2017-09-04T20:59:01.564Z,95.60
2017-09-04T21:01:29.024Z,95.60
2017-09-04T21:03:56.490Z,95.80
2017-09-04T21:06:23.984Z,95.80
2017-09-04T21:08:51.435Z,95.80
2017-09-04T21:11:18.917Z,96.00
2017-09-04T21:13:46.378Z,96.10
2017-09-04T21:16:13.847Z,96.10
2017-09-04T21:18:41.319Z,96.20
2017-09-04T21:21:08.774Z,96.40
2017-09-04T21:23:36.254Z,96.40
2017-09-04T21:26:04.475Z,96.60
2017-09-04T21:28:31.931Z,96.50
2017-09-04T21:30:59.411Z,96.50
2017-09-04T21:33:27.026Z,96.40
2017-09-04T21:35:54.516Z,96.30
2017-09-04T21:38:21.976Z,96.40
2017-09-04T21:40:49.439Z,96.50
2017-09-04T21:43:16.912Z,96.50
2017-09-04T21:45:44.397Z,96.40
2017-09-04T21:48:12.618Z,96.40
2017-09-04T21:50:40.099Z,96.40
2017-09-04T21:53:07.559Z,96.30
2017-09-04T21:55:35.024Z,96.20
2017-09-04T21:58:02.488Z,96.20
2017-09-04T22:00:29.977Z,96.20
2017-09-04T22:02:57.431Z,96.60
2017-09-04T22:05:24.888Z,96.70
2017-09-04T22:07:52.355Z,96.90
2017-09-04T22:10:19.817Z,97.10
2017-09-04T22:12:47.297Z,97.40
2017-09-04T22:15:14.755Z,97.70
2017-09-04T22:17:42.218Z,97.90
2017-09-04T22:20:09.680Z,98.10
2017-09-04T22:22:37.162Z,98.10
2017-09-04T22:25:04.622Z,98.20
2017-09-04T22:27:32.102Z,98.40
2017-09-04T22:29:59.565Z,98.30
2017-09-04T22:32:27.022Z,98.30
2017-09-04T22:34:54.506Z,98.20
2017-09-04T22:37:21.976Z,98.00
2017-09-04T22:39:49.430Z,98.00
2017-09-04T22:42:16.906Z,98.00
2017-09-04T22:44:44.364Z,97.90
2017-09-04T22:47:11.831Z,97.90
2017-09-04T22:49:39.289Z,97.80
2017-09-04T22:52:06.866Z,97.90
2017-09-04T22:54:34.321Z,97.80
2017-09-04T22:57:01.787Z,97.90
2017-09-04T22:59:29.264Z,98.00
2017-09-04T23:01:56.736Z,98.00
2017-09-04T23:04:24.207Z,98.20
2017-09-04T23:06:51.682Z,98.20
2017-09-04T23:09:19.151Z,98.30
2017-09-04T23:11:46.618Z,98.40
2017-09-04T23:14:14.095Z,98.40
2017-09-04T23:16:41.555Z,98.50
2017-09-04T23:19:09.019Z,98.50
2017-09-04T23:21:36.491Z,98.40
2017-09-04T23:24:03.947Z,98.50
2017-09-04T23:26:31.415Z,98.40
2017-09-04T23:28:59.658Z,98.70
2017-09-04T23:31:27.133Z,98.40
2017-09-04T23:33:54.603Z,98.50
2017-09-04T23:36:22.078Z,98.60
2017-09-04T23:38:49.559Z,98.60
2017-09-04T23:41:17.032Z,98.40
2017-09-04T23:43:44.507Z,98.40
2017-09-04T23:46:11.960Z,98.30
2017-09-04T23:48:39.430Z,98.30
2017-09-04T23:51:06.883Z,98.10
2017-09-04T23:53:34.350Z,98.30
2017-09-04T23:56:01.827Z,98.10
2017-09-04T23:58:29.411Z,98.10
